Terminal Aerodrome Forecast
Issued by NWS Mt. Holly, NJ

Home | Current Version | Previous Version | Text Only | Print | Product List | Glossary On
Versions: 1 2 3 4 5 6 7 8 9 10 11 12 13 14 15 16 17 18 19 20 21 22 23 24 25 26 27
000
FTUS41 KPHI 022340
TAFTTN
TAF
KTTN 022340Z 0300/0324 30011KT P6SM SKC
     FM030400 32005KT P6SM FEW250
     FM031200 VRB03KT P6SM BKN150
     FM031700 17005KT P6SM OVC060
     FM032100 16008KT 2SM -SN OVC025
     FM032200 16008KT 3SM -FZRAPL OVC025=

USA.gov is the U.S. government's official web portal to all federal, state and local government web resources and services.